sensor_id;sensor_type;location;lat;lon;timestamp;temperature;humidity
36372;DHT22;22398;51.346;12.372;2023-03-24T00:04:34;12.70;97.70
36372;DHT22;22398;51.346;12.372;2023-03-24T00:09:42;12.80;97.50
36372;DHT22;22398;51.346;12.372;2023-03-24T00:14:46;12.90;97.50
36372;DHT22;22398;51.346;12.372;2023-03-24T00:19:49;12.90;97.00
36372;DHT22;22398;51.346;12.372;2023-03-24T00:24:55;12.80;96.80
36372;DHT22;22398;51.346;12.372;2023-03-24T00:29:59;12.80;96.70
36372;DHT22;22398;51.346;12.372;2023-03-24T00:35:02;12.60;96.70
36372;DHT22;22398;51.346;12.372;2023-03-24T00:40:10;12.60;96.80
36372;DHT22;22398;51.346;12.372;2023-03-24T00:45:16;12.50;96.90
36372;DHT22;22398;51.346;12.372;2023-03-24T00:50:22;12.60;97.10
36372;DHT22;22398;51.346;12.372;2023-03-24T00:55:31;12.60;97.10
36372;DHT22;22398;51.346;12.372;2023-03-24T01:00:35;12.60;97.20
36372;DHT22;22398;51.346;12.372;2023-03-24T01:05:43;12.70;97.20
36372;DHT22;22398;51.346;12.372;2023-03-24T01:10:51;12.70;97.20
36372;DHT22;22398;51.346;12.372;2023-03-24T01:16:12;12.70;97.30
36372;DHT22;22398;51.346;12.372;2023-03-24T01:21:21;12.80;97.30
36372;DHT22;22398;51.346;12.372;2023-03-24T01:26:27;12.90;97.20
36372;DHT22;22398;51.346;12.372;2023-03-24T01:31:31;13.00;97.30
36372;DHT22;22398;51.346;12.372;2023-03-24T01:36:34;13.00;97.40
36372;DHT22;22398;51.346;12.372;2023-03-24T01:41:39;13.00;97.60
36372;DHT22;22398;51.346;12.372;2023-03-24T01:46:43;13.00;97.80
36372;DHT22;22398;51.346;12.372;2023-03-24T01:51:48;13.00;98.00
36372;DHT22;22398;51.346;12.372;2023-03-24T01:56:56;13.00;98.10
36372;DHT22;22398;51.346;12.372;2023-03-24T02:02:03;13.00;98.40
36372;DHT22;22398;51.346;12.372;2023-03-24T02:07:28;13.00;98.20
36372;DHT22;22398;51.346;12.372;2023-03-24T02:12:36;13.00;98.30
36372;DHT22;22398;51.346;12.372;2023-03-24T02:17:53;13.10;98.30
36372;DHT22;22398;51.346;12.372;2023-03-24T02:28:38;13.10;98.40
36372;DHT22;22398;51.346;12.372;2023-03-24T02:34:03;13.10;98.50
36372;DHT22;22398;51.346;12.372;2023-03-24T02:39:32;13.00;98.70
36372;DHT22;22398;51.346;12.372;2023-03-24T02:44:45;13.00;98.80
36372;DHT22;22398;51.346;12.372;2023-03-24T02:49:57;12.80;99.00
36372;DHT22;22398;51.346;12.372;2023-03-24T02:55:10;12.60;99.30
36372;DHT22;22398;51.346;12.372;2023-03-24T03:00:20;12.40;99.80
36372;DHT22;22398;51.346;12.372;2023-03-24T03:05:53;12.30;99.90
36372;DHT22;22398;51.346;12.372;2023-03-24T03:11:02;12.10;99.90
36372;DHT22;22398;51.346;12.372;2023-03-24T03:16:11;12.00;99.90
36372;DHT22;22398;51.346;12.372;2023-03-24T03:21:17;11.90;99.90
36372;DHT22;22398;51.346;12.372;2023-03-24T03:26:24;12.00;99.90
36372;DHT22;22398;51.346;12.372;2023-03-24T03:31:34;12.00;99.90
36372;DHT22;22398;51.346;12.372;2023-03-24T03:36:46;12.10;99.90
36372;DHT22;22398;51.346;12.372;2023-03-24T03:41:52;12.20;99.90
36372;DHT22;22398;51.346;12.372;2023-03-24T03:46:55;12.30;99.90
36372;DHT22;22398;51.346;12.372;2023-03-24T03:52:10;12.40;99.90
36372;DHT22;22398;51.346;12.372;2023-03-24T03:57:16;12.40;99.90
36372;DHT22;22398;51.346;12.372;2023-03-24T04:02:55;12.50;99.90
36372;DHT22;22398;51.346;12.372;2023-03-24T04:08:25;12.60;99.90
36372;DHT22;22398;51.346;12.372;2023-03-24T04:14:01;12.60;99.90
36372;DHT22;22398;51.346;12.372;2023-03-24T04:19:32;12.70;99.90
36372;DHT22;22398;51.346;12.372;2023-03-24T04:24:43;12.80;99.90
36372;DHT22;22398;51.346;12.372;2023-03-24T04:30:02;12.80;99.90
36372;DHT22;22398;51.346;12.372;2023-03-24T04:35:12;12.90;99.90
36372;DHT22;22398;51.346;12.372;2023-03-24T04:40:39;12.90;99.90
36372;DHT22;22398;51.346;12.372;2023-03-24T04:45:46;12.90;99.90
36372;DHT22;22398;51.346;12.372;2023-03-24T04:51:04;12.90;99.90
36372;DHT22;22398;51.346;12.372;2023-03-24T04:56:37;13.00;99.90
36372;DHT22;22398;51.346;12.372;2023-03-24T05:01:52;13.00;99.90
36372;DHT22;22398;51.346;12.372;2023-03-24T05:07:05;13.00;99.90
36372;DHT22;22398;51.346;12.372;2023-03-24T05:12:09;13.10;99.90
36372;DHT22;22398;51.346;12.372;2023-03-24T05:17:35;13.10;99.90
36372;DHT22;22398;51.346;12.372;2023-03-24T05:22:39;13.10;99.90
36372;DHT22;22398;51.346;12.372;2023-03-24T05:27:43;13.10;99.90
36372;DHT22;22398;51.346;12.372;2023-03-24T05:32:57;13.10;99.90
36372;DHT22;22398;51.346;12.372;2023-03-24T05:38:00;13.10;99.90
36372;DHT22;22398;51.346;12.372;2023-03-24T05:43:04;13.20;99.90
36372;DHT22;22398;51.346;12.372;2023-03-24T05:48:15;13.20;99.90
36372;DHT22;22398;51.346;12.372;2023-03-24T05:53:37;13.30;99.90
36372;DHT22;22398;51.346;12.372;2023-03-24T05:58:40;13.40;99.90
36372;DHT22;22398;51.346;12.372;2023-03-24T06:03:47;13.40;99.90
36372;DHT22;22398;51.346;12.372;2023-03-24T06:08:51;13.50;99.90
36372;DHT22;22398;51.346;12.372;2023-03-24T06:13:56;13.70;99.90
36372;DHT22;22398;51.346;12.372;2023-03-24T06:19:06;13.70;99.90
36372;DHT22;22398;51.346;12.372;2023-03-24T06:24:25;13.80;99.90
36372;DHT22;22398;51.346;12.372;2023-03-24T06:29:34;13.90;99.90
36372;DHT22;22398;51.346;12.372;2023-03-24T06:34:39;14.00;99.90
36372;DHT22;22398;51.346;12.372;2023-03-24T06:40:02;14.00;99.90
36372;DHT22;22398;51.346;12.372;2023-03-24T06:45:15;14.10;99.90
36372;DHT22;22398;51.346;12.372;2023-03-24T06:50:22;14.20;99.90
36372;DHT22;22398;51.346;12.372;2023-03-24T06:55:29;14.20;99.80
36372;DHT22;22398;51.346;12.372;2023-03-24T07:00:32;14.30;99.50
36372;DHT22;22398;51.346;12.372;2023-03-24T07:05:53;14.40;99.30
36372;DHT22;22398;51.346;12.372;2023-03-24T07:10:59;14.50;99.10
36372;DHT22;22398;51.346;12.372;2023-03-24T07:16:03;14.60;98.70
36372;DHT22;22398;51.346;12.372;2023-03-24T07:21:10;14.80;98.50
36372;DHT22;22398;51.346;12.372;2023-03-24T07:26:14;14.90;98.00
36372;DHT22;22398;51.346;12.372;2023-03-24T07:31:30;15.00;97.70
36372;DHT22;22398;51.346;12.372;2023-03-24T07:36:43;15.10;97.50
36372;DHT22;22398;51.346;12.372;2023-03-24T07:41:50;15.30;97.30
36372;DHT22;22398;51.346;12.372;2023-03-24T07:47:13;15.60;97.00
36372;DHT22;22398;51.346;12.372;2023-03-24T07:52:18;15.70;96.50
36372;DHT22;22398;51.346;12.372;2023-03-24T07:57:25;15.70;96.20
36372;DHT22;22398;51.346;12.372;2023-03-24T08:02:29;15.70;96.10
36372;DHT22;22398;51.346;12.372;2023-03-24T08:07:55;15.70;96.00
36372;DHT22;22398;51.346;12.372;2023-03-24T08:12:59;15.90;95.70
36372;DHT22;22398;51.346;12.372;2023-03-24T08:18:03;15.80;95.40
36372;DHT22;22398;51.346;12.372;2023-03-24T08:23:08;15.80;95.50
36372;DHT22;22398;51.346;12.372;2023-03-24T08:28:12;15.90;95.40
36372;DHT22;22398;51.346;12.372;2023-03-24T08:33:24;16.10;95.40
36372;DHT22;22398;51.346;12.372;2023-03-24T08:38:30;16.30;94.80
36372;DHT22;22398;51.346;12.372;2023-03-24T08:43:35;16.50;94.50
36372;DHT22;22398;51.346;12.372;2023-03-24T08:48:39;16.80;94.10
36372;DHT22;22398;51.346;12.372;2023-03-24T08:53:45;16.90;93.70
36372;DHT22;22398;51.346;12.372;2023-03-24T08:58:49;17.00;93.20
36372;DHT22;22398;51.346;12.372;2023-03-24T09:03:54;17.00;92.90
36372;DHT22;22398;51.346;12.372;2023-03-24T09:08:59;17.20;92.70
36372;DHT22;22398;51.346;12.372;2023-03-24T09:14:03;17.50;92.20
36372;DHT22;22398;51.346;12.372;2023-03-24T09:19:07;17.70;91.70
36372;DHT22;22398;51.346;12.372;2023-03-24T09:24:11;17.70;91.20
36372;DHT22;22398;51.346;12.372;2023-03-24T09:29:17;17.80;90.80
36372;DHT22;22398;51.346;12.372;2023-03-24T09:34:20;17.80;90.50
36372;DHT22;22398;51.346;12.372;2023-03-24T09:39:24;17.90;90.20
36372;DHT22;22398;51.346;12.372;2023-03-24T09:44:29;18.20;89.60
36372;DHT22;22398;51.346;12.372;2023-03-24T09:49:37;18.30;88.20
36372;DHT22;22398;51.346;12.372;2023-03-24T09:54:48;18.80;87.80
36372;DHT22;22398;51.346;12.372;2023-03-24T09:59:55;19.30;86.60
36372;DHT22;22398;51.346;12.372;2023-03-24T10:04:58;19.50;84.30
36372;DHT22;22398;51.346;12.372;2023-03-24T10:10:18;19.10;82.20
36372;DHT22;22398;51.346;12.372;2023-03-24T10:15:27;18.80;81.90
36372;DHT22;22398;51.346;12.372;2023-03-24T10:20:44;18.80;81.90
36372;DHT22;22398;51.346;12.372;2023-03-24T10:25:55;18.70;81.20
36372;DHT22;22398;51.346;12.372;2023-03-24T10:31:04;18.70;81.20
36372;DHT22;22398;51.346;12.372;2023-03-24T10:36:11;18.90;80.70
36372;DHT22;22398;51.346;12.372;2023-03-24T10:41:19;19.20;80.20
36372;DHT22;22398;51.346;12.372;2023-03-24T10:46:24;19.50;79.10
36372;DHT22;22398;51.346;12.372;2023-03-24T10:51:32;19.80;78.10
36372;DHT22;22398;51.346;12.372;2023-03-24T10:56:41;19.60;76.40
36372;DHT22;22398;51.346;12.372;2023-03-24T11:01:46;19.40;75.80
36372;DHT22;22398;51.346;12.372;2023-03-24T11:07:02;19.20;75.00
36372;DHT22;22398;51.346;12.372;2023-03-24T11:12:20;18.30;74.10
36372;DHT22;22398;51.346;12.372;2023-03-24T11:17:24;17.20;73.00
36372;DHT22;22398;51.346;12.372;2023-03-24T11:22:27;16.60;73.00
36372;DHT22;22398;51.346;12.372;2023-03-24T11:27:40;16.10;73.50
36372;DHT22;22398;51.346;12.372;2023-03-24T11:32:45;15.80;74.00
36372;DHT22;22398;51.346;12.372;2023-03-24T11:37:50;15.40;74.90
36372;DHT22;22398;51.346;12.372;2023-03-24T11:42:57;15.20;76.00
36372;DHT22;22398;51.346;12.372;2023-03-24T11:48:09;15.50;76.30
36372;DHT22;22398;51.346;12.372;2023-03-24T11:53:17;15.60;76.20
36372;DHT22;22398;51.346;12.372;2023-03-24T11:58:27;15.80;75.90
36372;DHT22;22398;51.346;12.372;2023-03-24T12:03:54;15.70;75.70
36372;DHT22;22398;51.346;12.372;2023-03-24T12:09:07;15.60;76.20
36372;DHT22;22398;51.346;12.372;2023-03-24T12:14:16;15.30;76.90
36372;DHT22;22398;51.346;12.372;2023-03-24T12:19:33;15.30;78.00
36372;DHT22;22398;51.346;12.372;2023-03-24T12:25:04;15.40;79.60
36372;DHT22;22398;51.346;12.372;2023-03-24T12:30:17;15.50;80.00
36372;DHT22;22398;51.346;12.372;2023-03-24T12:35:33;15.40;80.60
36372;DHT22;22398;51.346;12.372;2023-03-24T12:41:10;15.70;80.90
36372;DHT22;22398;51.346;12.372;2023-03-24T12:46:32;15.80;79.60
36372;DHT22;22398;51.346;12.372;2023-03-24T12:51:45;15.50;79.30
36372;DHT22;22398;51.346;12.372;2023-03-24T12:56:52;15.20;79.70
36372;DHT22;22398;51.346;12.372;2023-03-24T13:02:04;15.00;80.00
36372;DHT22;22398;51.346;12.372;2023-03-24T13:07:15;14.60;80.90
36372;DHT22;22398;51.346;12.372;2023-03-24T13:12:21;14.30;82.20
36372;DHT22;22398;51.346;12.372;2023-03-24T13:17:31;14.20;84.40
36372;DHT22;22398;51.346;12.372;2023-03-24T13:22:36;14.00;86.30
36372;DHT22;22398;51.346;12.372;2023-03-24T13:27:40;14.10;88.20
36372;DHT22;22398;51.346;12.372;2023-03-24T13:32:48;14.40;88.60
36372;DHT22;22398;51.346;12.372;2023-03-24T13:37:58;14.40;88.30
36372;DHT22;22398;51.346;12.372;2023-03-24T13:43:10;14.30;87.90
36372;DHT22;22398;51.346;12.372;2023-03-24T13:48:30;14.10;88.00
36372;DHT22;22398;51.346;12.372;2023-03-24T13:53:37;13.90;88.80
36372;DHT22;22398;51.346;12.372;2023-03-24T14:04:22;14.20;90.50
36372;DHT22;22398;51.346;12.372;2023-03-24T14:09:28;14.40;90.80
36372;DHT22;22398;51.346;12.372;2023-03-24T14:14:33;15.00;90.80
36372;DHT22;22398;51.346;12.372;2023-03-24T14:19:40;14.90;90.10
36372;DHT22;22398;51.346;12.372;2023-03-24T14:24:45;14.90;90.20
36372;DHT22;22398;51.346;12.372;2023-03-24T14:29:50;15.10;89.60
36372;DHT22;22398;51.346;12.372;2023-03-24T14:34:56;14.80;88.40
36372;DHT22;22398;51.346;12.372;2023-03-24T14:40:01;14.70;88.30
36372;DHT22;22398;51.346;12.372;2023-03-24T14:45:09;14.60;86.90
36372;DHT22;22398;51.346;12.372;2023-03-24T14:50:35;14.50;86.50
36372;DHT22;22398;51.346;12.372;2023-03-24T14:55:39;14.60;85.30
36372;DHT22;22398;51.346;12.372;2023-03-24T15:00:46;14.60;84.90
36372;DHT22;22398;51.346;12.372;2023-03-24T15:06:18;15.20;84.90
36372;DHT22;22398;51.346;12.372;2023-03-24T15:11:27;15.50;82.90
36372;DHT22;22398;51.346;12.372;2023-03-24T15:16:33;15.20;82.30
36372;DHT22;22398;51.346;12.372;2023-03-24T15:21:44;15.00;82.50
36372;DHT22;22398;51.346;12.372;2023-03-24T15:26:49;14.80;82.70
36372;DHT22;22398;51.346;12.372;2023-03-24T15:31:54;15.00;82.80
36372;DHT22;22398;51.346;12.372;2023-03-24T15:37:00;15.10;81.90
36372;DHT22;22398;51.346;12.372;2023-03-24T15:42:06;15.00;81.70
36372;DHT22;22398;51.346;12.372;2023-03-24T15:47:14;15.00;82.00
36372;DHT22;22398;51.346;12.372;2023-03-24T15:52:28;15.10;81.70
36372;DHT22;22398;51.346;12.372;2023-03-24T15:57:37;15.10;80.70
36372;DHT22;22398;51.346;12.372;2023-03-24T16:02:45;15.10;79.80
36372;DHT22;22398;51.346;12.372;2023-03-24T16:07:54;14.90;78.80
36372;DHT22;22398;51.346;12.372;2023-03-24T16:13:11;14.70;78.50
36372;DHT22;22398;51.346;12.372;2023-03-24T16:18:19;14.60;78.50
36372;DHT22;22398;51.346;12.372;2023-03-24T16:23:25;14.40;78.60
36372;DHT22;22398;51.346;12.372;2023-03-24T16:28:28;14.40;78.80
36372;DHT22;22398;51.346;12.372;2023-03-24T16:33:34;14.30;79.00
36372;DHT22;22398;51.346;12.372;2023-03-24T16:38:39;14.20;79.30
36372;DHT22;22398;51.346;12.372;2023-03-24T16:43:43;14.40;79.10
36372;DHT22;22398;51.346;12.372;2023-03-24T16:48:47;14.20;78.70
36372;DHT22;22398;51.346;12.372;2023-03-24T16:53:52;13.90;78.90
36372;DHT22;22398;51.346;12.372;2023-03-24T16:58:56;13.70;79.30
36372;DHT22;22398;51.346;12.372;2023-03-24T17:04:02;13.50;79.80
36372;DHT22;22398;51.346;12.372;2023-03-24T17:09:07;13.40;80.60
36372;DHT22;22398;51.346;12.372;2023-03-24T17:14:11;13.40;80.60
36372;DHT22;22398;51.346;12.372;2023-03-24T17:19:16;13.30;80.90
36372;DHT22;22398;51.346;12.372;2023-03-24T17:24:21;13.30;81.00
36372;DHT22;22398;51.346;12.372;2023-03-24T17:29:25;13.20;81.10
36372;DHT22;22398;51.346;12.372;2023-03-24T17:34:28;13.10;81.20
36372;DHT22;22398;51.346;12.372;2023-03-24T17:39:33;13.10;81.30
36372;DHT22;22398;51.346;12.372;2023-03-24T17:44:36;12.90;81.40
36372;DHT22;22398;51.346;12.372;2023-03-24T17:49:40;12.80;81.60
36372;DHT22;22398;51.346;12.372;2023-03-24T17:54:46;12.70;81.80
36372;DHT22;22398;51.346;12.372;2023-03-24T17:59:49;12.60;82.10
36372;DHT22;22398;51.346;12.372;2023-03-24T18:04:54;12.50;82.30
36372;DHT22;22398;51.346;12.372;2023-03-24T18:09:59;12.30;82.50
36372;DHT22;22398;51.346;12.372;2023-03-24T18:15:03;12.20;82.90
36372;DHT22;22398;51.346;12.372;2023-03-24T18:20:08;12.10;83.30
36372;DHT22;22398;51.346;12.372;2023-03-24T18:25:15;11.90;83.50
36372;DHT22;22398;51.346;12.372;2023-03-24T18:30:18;11.70;84.10
36372;DHT22;22398;51.346;12.372;2023-03-24T18:35:23;11.60;84.50
36372;DHT22;22398;51.346;12.372;2023-03-24T18:40:28;11.50;85.10
36372;DHT22;22398;51.346;12.372;2023-03-24T18:45:31;11.40;85.50
36372;DHT22;22398;51.346;12.372;2023-03-24T18:50:38;11.20;85.90
36372;DHT22;22398;51.346;12.372;2023-03-24T18:55:45;11.20;86.60
36372;DHT22;22398;51.346;12.372;2023-03-24T19:00:51;11.20;87.20
36372;DHT22;22398;51.346;12.372;2023-03-24T19:05:59;11.10;87.60
36372;DHT22;22398;51.346;12.372;2023-03-24T19:11:04;11.10;88.40
36372;DHT22;22398;51.346;12.372;2023-03-24T19:16:09;11.00;89.00
36372;DHT22;22398;51.346;12.372;2023-03-24T19:21:13;10.90;89.60
36372;DHT22;22398;51.346;12.372;2023-03-24T19:26:19;10.90;90.10
36372;DHT22;22398;51.346;12.372;2023-03-24T19:31:23;10.80;90.50
36372;DHT22;22398;51.346;12.372;2023-03-24T19:36:26;10.80;90.80
36372;DHT22;22398;51.346;12.372;2023-03-24T19:41:31;10.70;91.00
36372;DHT22;22398;51.346;12.372;2023-03-24T19:46:35;10.70;91.40
36372;DHT22;22398;51.346;12.372;2023-03-24T19:51:39;10.60;91.80
36372;DHT22;22398;51.346;12.372;2023-03-24T19:56:43;10.60;92.10
36372;DHT22;22398;51.346;12.372;2023-03-24T20:01:47;10.50;92.40
36372;DHT22;22398;51.346;12.372;2023-03-24T20:06:50;10.50;92.70
36372;DHT22;22398;51.346;12.372;2023-03-24T20:11:55;10.50;92.90
36372;DHT22;22398;51.346;12.372;2023-03-24T20:16:58;10.40;93.30
36372;DHT22;22398;51.346;12.372;2023-03-24T20:22:02;10.40;93.60
36372;DHT22;22398;51.346;12.372;2023-03-24T20:27:07;10.50;93.90
36372;DHT22;22398;51.346;12.372;2023-03-24T20:32:11;10.50;94.00
36372;DHT22;22398;51.346;12.372;2023-03-24T20:37:14;10.60;94.40
36372;DHT22;22398;51.346;12.372;2023-03-24T20:42:21;10.80;94.50
36372;DHT22;22398;51.346;12.372;2023-03-24T20:47:25;11.00;94.50
36372;DHT22;22398;51.346;12.372;2023-03-24T20:52:29;11.00;94.30
36372;DHT22;22398;51.346;12.372;2023-03-24T20:57:35;10.80;94.20
36372;DHT22;22398;51.346;12.372;2023-03-24T21:02:40;10.70;94.40
36372;DHT22;22398;51.346;12.372;2023-03-24T21:07:44;10.70;94.40
36372;DHT22;22398;51.346;12.372;2023-03-24T21:12:49;10.60;94.40
36372;DHT22;22398;51.346;12.372;2023-03-24T21:17:55;10.60;94.90
36372;DHT22;22398;51.346;12.372;2023-03-24T21:22:59;10.90;95.10
36372;DHT22;22398;51.346;12.372;2023-03-24T21:28:09;11.00;95.10
36372;DHT22;22398;51.346;12.372;2023-03-24T21:33:14;11.20;95.00
36372;DHT22;22398;51.346;12.372;2023-03-24T21:38:18;11.30;95.10
36372;DHT22;22398;51.346;12.372;2023-03-24T21:43:23;11.10;95.00
36372;DHT22;22398;51.346;12.372;2023-03-24T21:48:29;10.80;95.10
36372;DHT22;22398;51.346;12.372;2023-03-24T21:53:34;10.60;95.60
36372;DHT22;22398;51.346;12.372;2023-03-24T21:58:39;10.60;95.80
36372;DHT22;22398;51.346;12.372;2023-03-24T22:03:42;10.60;96.00
36372;DHT22;22398;51.346;12.372;2023-03-24T22:08:47;10.50;96.30
36372;DHT22;22398;51.346;12.372;2023-03-24T22:13:52;10.30;96.50
36372;DHT22;22398;51.346;12.372;2023-03-24T22:18:56;10.30;96.90
36372;DHT22;22398;51.346;12.372;2023-03-24T22:23:59;10.30;97.20
36372;DHT22;22398;51.346;12.372;2023-03-24T22:29:04;10.40;97.50
36372;DHT22;22398;51.346;12.372;2023-03-24T22:34:08;10.40;97.70
36372;DHT22;22398;51.346;12.372;2023-03-24T22:39:11;10.50;97.80
36372;DHT22;22398;51.346;12.372;2023-03-24T22:44:17;10.40;97.90
36372;DHT22;22398;51.346;12.372;2023-03-24T22:49:21;10.40;98.00
36372;DHT22;22398;51.346;12.372;2023-03-24T22:54:25;10.30;98.00
36372;DHT22;22398;51.346;12.372;2023-03-24T22:59:30;10.20;98.10
36372;DHT22;22398;51.346;12.372;2023-03-24T23:04:34;10.00;98.20
36372;DHT22;22398;51.346;12.372;2023-03-24T23:09:38;9.90;98.50
36372;DHT22;22398;51.346;12.372;2023-03-24T23:14:45;9.80;98.90
36372;DHT22;22398;51.346;12.372;2023-03-24T23:19:49;9.80;99.30
36372;DHT22;22398;51.346;12.372;2023-03-24T23:24:53;10.00;99.60
36372;DHT22;22398;51.346;12.372;2023-03-24T23:30:07;10.20;99.60
36372;DHT22;22398;51.346;12.372;2023-03-24T23:35:12;10.00;99.60
36372;DHT22;22398;51.346;12.372;2023-03-24T23:40:16;10.00;99.80
36372;DHT22;22398;51.346;12.372;2023-03-24T23:45:21;10.00;99.90
36372;DHT22;22398;51.346;12.372;2023-03-24T23:50:25;10.10;99.90
36372;DHT22;22398;51.346;12.372;2023-03-24T23:55:30;10.20;99.90
